Time;durP1;ratioP1;P1;durP2;ratioP2;P2;SDS_P1;SDS_P2;PMS_P1;PMS_P2;Temp;Humidity;BMP_temperature;BMP_pressure;BME280_temperature;BME280_humidity;BME280_pressure;Samples;Min_cycle;Max_cycle;Signal;HPM_P1;HPM_P2
2021/08/21 00:03:40;;;;;;;7.40;6.63;;;;;;;14.28;78.32;100023.16;256021;1104;115424;-67
2021/08/21 00:08:43;;;;;;;6.37;5.63;;;;;;;14.29;77.94;100026.66;253978;1104;114763;-68
2021/08/21 00:13:47;;;;;;;7.88;6.65;;;;;;;14.25;78.23;100030.89;254419;1104;115422;-67
2021/08/21 00:18:49;;;;;;;12.38;6.03;;;;;;;14.30;78.38;100033.63;256414;1104;137627;-66
2021/08/21 00:23:55;;;;;;;11.00;7.08;;;;;;;14.35;78.29;100036.38;253661;1100;115211;-68
2021/08/21 00:28:58;;;;;;;11.23;6.90;;;;;;;14.24;78.23;100038.13;254173;1104;116035;-68
2021/08/21 00:34:02;;;;;;;11.23;7.63;;;;;;;14.27;78.58;100032.27;253557;1104;115616;-67
2021/08/21 00:39:05;;;;;;;10.00;7.53;;;;;;;14.33;79.40;100036.63;253758;1104;115980;-66
2021/08/21 00:44:10;;;;;;;13.27;8.03;;;;;;;14.37;79.14;100035.03;253722;1104;114673;-67
2021/08/21 00:49:14;;;;;;;9.03;7.08;;;;;;;14.42;78.83;100037.81;255388;1104;116054;-67
2021/08/21 00:54:18;;;;;;;6.65;5.33;;;;;;;14.40;78.66;100041.77;254889;1104;115221;-67
2021/08/21 00:59:21;;;;;;;11.80;7.23;;;;;;;14.54;79.22;100036.86;257187;1105;116355;-67
2021/08/21 01:04:25;;;;;;;8.40;7.03;;;;;;;14.68;79.20;100033.50;257117;1104;116378;-67
2021/08/21 01:09:28;;;;;;;9.63;7.63;;;;;;;14.69;79.23;100028.94;257071;1104;116598;-68
2021/08/21 01:14:31;;;;;;;6.65;6.05;;;;;;;14.63;79.20;100033.48;257110;1104;115945;-68
2021/08/21 01:19:38;;;;;;;8.83;7.93;;;;;;;14.66;79.01;100040.21;257228;1104;116192;-67
2021/08/21 01:24:50;;;;;;;8.08;6.75;;;;;;;14.67;78.57;100033.78;257079;1104;114875;-67
2021/08/21 01:29:54;;;;;;;8.73;6.17;;;;;;;14.63;78.63;100038.84;256790;1104;115434;-67
2021/08/21 01:34:58;;;;;;;10.13;6.77;;;;;;;14.67;79.11;100031.09;253675;1104;116226;-68
2021/08/21 01:40:02;;;;;;;11.93;6.60;;;;;;;14.73;79.40;100030.86;257246;1104;115851;-67
2021/08/21 01:45:11;;;;;;;8.17;6.77;;;;;;;14.79;79.38;100029.85;255492;1100;115250;-67
2021/08/21 01:50:19;;;;;;;7.10;6.40;;;;;;;14.89;79.50;100031.02;255216;1104;115419;-67
2021/08/21 01:55:23;;;;;;;8.50;7.08;;;;;;;14.96;79.33;100024.38;253823;1104;115557;-68
2021/08/21 02:00:29;;;;;;;7.90;6.75;;;;;;;15.00;79.47;100019.27;253778;1104;115333;-68
2021/08/21 02:05:33;;;;;;;8.37;6.80;;;;;;;14.98;79.55;100016.06;254062;1104;114890;-67
2021/08/21 02:10:37;;;;;;;13.47;6.83;;;;;;;14.91;78.83;100020.84;254785;1104;116384;-66
2021/08/21 02:15:40;;;;;;;14.63;8.68;;;;;;;14.90;79.49;100025.39;255617;1100;114808;-66
2021/08/21 02:20:43;;;;;;;8.63;7.38;;;;;;;14.89;79.12;100013.04;257100;1104;115945;-67
2021/08/21 02:25:55;;;;;;;9.40;7.05;;;;;;;14.94;78.89;100021.14;253979;1104;114809;-67
2021/08/21 02:30:59;;;;;;;8.23;7.43;;;;;;;14.94;78.80;100020.33;256245;1104;116177;-67
2021/08/21 02:36:03;;;;;;;10.70;8.27;;;;;;;14.88;79.15;100016.78;254989;1104;116038;-67
2021/08/21 02:41:08;;;;;;;11.73;8.90;;;;;;;14.83;79.46;100024.79;254864;1104;115553;-66
2021/08/21 02:46:11;;;;;;;17.47;10.60;;;;;;;14.83;79.15;100030.16;253818;1104;115443;-69
2021/08/21 02:51:16;;;;;;;15.03;9.48;;;;;;;14.88;79.65;100026.71;254901;1104;116285;-68
2021/08/21 02:56:19;;;;;;;11.83;10.40;;;;;;;14.89;79.68;100023.77;254522;1104;115493;-68
2021/08/21 03:01:23;;;;;;;16.13;11.87;;;;;;;14.85;79.22;100024.53;257240;1104;114918;-68
2021/08/21 03:06:26;;;;;;;18.60;11.15;;;;;;;14.91;79.45;100024.33;257175;1104;115490;-68
2021/08/21 03:11:29;;;;;;;16.50;12.07;;;;;;;14.89;79.79;100029.14;257255;1104;115960;-68
2021/08/21 03:16:32;;;;;;;14.17;11.57;;;;;;;14.91;79.56;100031.57;257149;1104;116005;-68
2021/08/21 03:21:35;;;;;;;14.13;12.63;;;;;;;14.94;79.84;100039.92;257048;1104;116310;-67
2021/08/21 03:26:39;;;;;;;14.25;10.63;;;;;;;15.03;79.82;100038.37;257023;1104;116744;-66
2021/08/21 03:31:41;;;;;;;16.80;11.60;;;;;;;15.15;79.97;100043.57;254316;1104;116545;-66
2021/08/21 03:36:44;;;;;;;14.25;11.33;;;;;;;15.19;79.87;100050.05;253891;1104;116594;-67
2021/08/21 03:41:48;;;;;;;17.53;11.50;;;;;;;15.17;79.63;100049.50;256069;1104;115787;-68
2021/08/21 03:46:52;;;;;;;14.48;12.80;;;;;;;15.10;79.96;100052.39;256800;1100;115296;-69
2021/08/21 03:51:55;;;;;;;15.43;12.77;;;;;;;15.08;79.84;100057.20;253764;1104;115386;-68
2021/08/21 03:56:58;;;;;;;15.53;13.47;;;;;;;15.09;80.09;100058.83;253884;1104;115756;-67
2021/08/21 04:02:01;;;;;;;12.15;10.93;;;;;;;15.14;79.93;100064.24;253772;1104;115735;-68
2021/08/21 04:07:04;;;;;;;18.50;13.20;;;;;;;15.16;80.34;100067.48;253824;1104;115651;-68
2021/08/21 04:12:08;;;;;;;14.67;13.17;;;;;;;15.23;80.11;100074.52;253789;1104;115831;-68
2021/08/21 04:17:11;;;;;;;13.85;12.45;;;;;;;15.26;79.70;100082.06;253926;1104;115621;-68
2021/08/21 04:22:15;;;;;;;18.70;14.93;;;;;;;15.27;80.29;100083.69;254299;1104;115265;-68
2021/08/21 04:27:19;;;;;;;14.83;12.08;;;;;;;15.27;79.75;100084.50;254511;1104;116495;-69
2021/08/21 04:32:23;;;;;;;16.35;13.20;;;;;;;15.29;79.91;100092.27;253643;1104;115362;-70
2021/08/21 04:37:26;;;;;;;13.37;12.03;;;;;;;15.34;80.08;100100.37;253809;1104;116134;-69
2021/08/21 04:42:29;;;;;;;17.98;12.78;;;;;;;15.42;80.09;100102.59;254598;1104;115561;-70
2021/08/21 04:47:31;;;;;;;13.55;11.98;;;;;;;15.51;79.95;100103.73;253792;1099;115524;-68
2021/08/21 04:52:36;;;;;;;14.40;12.20;;;;;;;15.56;79.60;100105.66;253710;1098;115668;-70
2021/08/21 04:57:38;;;;;;;15.83;14.13;;;;;;;15.62;79.88;100107.31;254698;1104;115584;-67
2021/08/21 05:02:41;;;;;;;15.40;12.57;;;;;;;15.68;79.57;100111.66;253912;1104;115609;-66
2021/08/21 05:07:45;;;;;;;15.85;13.30;;;;;;;15.67;79.17;100120.80;253881;1104;115944;-66
2021/08/21 05:12:49;;;;;;;14.48;11.80;;;;;;;15.89;79.46;100123.37;253609;1104;116069;-67
2021/08/21 05:17:54;;;;;;;16.05;13.25;;;;;;;16.11;79.42;100113.27;257132;1104;116119;-66
2021/08/21 05:23:14;;;;;;;17.13;13.48;;;;;;;16.39;79.14;100112.84;257053;1104;202084;-69
2021/08/21 05:28:18;;;;;;;11.40;9.95;;;;;;;16.44;78.47;100115.55;257177;1104;116453;-69
2021/08/21 05:33:22;;;;;;;14.65;13.15;;;;;;;16.56;78.50;100122.57;256268;1104;114818;-69
2021/08/21 05:38:25;;;;;;;14.70;13.20;;;;;;;16.79;78.20;100132.91;257224;1104;116416;-69
2021/08/21 05:43:28;;;;;;;14.60;13.03;;;;;;;16.77;77.96;100137.75;255520;1104;115772;-68
2021/08/21 05:48:32;;;;;;;15.68;13.43;;;;;;;16.79;77.77;100138.30;256919;1104;115321;-66
2021/08/21 05:53:35;;;;;;;12.20;10.90;;;;;;;16.83;77.69;100144.74;255847;1104;114838;-67
2021/08/21 05:58:38;;;;;;;13.70;12.23;;;;;;;16.84;77.44;100151.75;255646;1099;115831;-68
2021/08/21 06:03:41;;;;;;;14.10;11.80;;;;;;;17.23;77.40;100146.70;253694;1104;115794;-66
2021/08/21 06:08:43;;;;;;;14.30;10.65;;;;;;;17.22;77.18;100147.78;254342;1104;115945;-66
2021/08/21 06:13:46;;;;;;;12.55;11.25;;;;;;;17.18;76.57;100155.59;255685;1098;115477;-68
2021/08/21 06:18:49;;;;;;;13.68;12.28;;;;;;;17.32;76.90;100157.77;254668;1104;115795;-67
2021/08/21 06:23:52;;;;;;;17.30;11.80;;;;;;;17.73;76.83;100159.38;253770;1104;135468;-67
2021/08/21 06:28:55;;;;;;;14.23;12.73;;;;;;;17.96;76.54;100162.61;254419;1104;115503;-67
2021/08/21 06:33:58;;;;;;;12.58;11.08;;;;;;;17.97;76.39;100169.61;254951;1104;116223;-67
2021/08/21 06:39:03;;;;;;;14.57;11.57;;;;;;;18.13;76.28;100173.88;253643;1104;116070;-67
2021/08/21 06:44:06;;;;;;;13.08;11.48;;;;;;;18.07;75.37;100169.58;253662;1104;114924;-65
2021/08/21 06:49:11;;;;;;;13.50;10.75;;;;;;;18.03;75.68;100171.23;253811;1104;115522;-67
2021/08/21 06:54:14;;;;;;;12.05;10.93;;;;;;;18.24;75.45;100174.67;255966;1104;115474;-67
2021/08/21 06:59:17;;;;;;;11.45;10.25;;;;;;;18.16;74.74;100182.24;255119;1104;115577;-68
2021/08/21 07:04:19;;;;;;;14.00;11.83;;;;;;;18.07;74.51;100174.97;257084;1104;116004;-65
2021/08/21 07:09:22;;;;;;;14.08;11.55;;;;;;;18.30;74.63;100182.48;257046;1104;117252;-67
2021/08/21 07:14:25;;;;;;;15.03;11.10;;;;;;;18.92;75.29;100186.57;255613;1104;116411;-65
2021/08/21 07:19:30;;;;;;;11.30;9.03;;;;;;;18.95;74.14;100194.12;257258;1104;115761;-66
2021/08/21 07:24:33;;;;;;;15.48;11.50;;;;;;;18.85;74.14;100191.46;257038;1104;116162;-66
2021/08/21 07:29:36;;;;;;;13.15;11.18;;;;;;;19.16;73.70;100203.71;257080;1104;116049;-65
2021/08/21 07:34:40;;;;;;;12.05;10.83;;;;;;;19.53;73.34;100198.89;257129;1104;115139;-67
2021/08/21 07:39:43;;;;;;;12.13;10.90;;;;;;;19.30;73.29;100205.77;257008;1104;116382;-67
2021/08/21 07:44:45;;;;;;;12.25;10.95;;;;;;;19.65;73.20;100213.66;257148;1104;117268;-67
2021/08/21 07:49:48;;;;;;;12.75;11.45;;;;;;;19.56;72.95;100206.45;257194;1104;116254;-66
2021/08/21 07:54:51;;;;;;;14.30;11.60;;;;;;;19.47;72.49;100219.72;256867;1104;115830;-66
2021/08/21 07:59:55;;;;;;;12.83;11.53;;;;;;;19.66;72.94;100219.87;257115;1104;115476;-64
2021/08/21 08:04:58;;;;;;;10.58;9.25;;;;;;;19.70;72.50;100223.63;254470;1104;115638;-67
2021/08/21 08:10:02;;;;;;;11.80;10.27;;;;;;;19.54;72.61;100238.37;253781;1104;115852;-67
2021/08/21 08:15:07;;;;;;;11.23;8.08;;;;;;;19.97;73.29;100234.75;253716;1104;115688;-66
2021/08/21 08:20:13;;;;;;;9.95;8.95;;;;;;;20.30;72.22;100230.37;253557;1104;115241;-67
2021/08/21 08:25:16;;;;;;;12.78;10.88;;;;;;;20.22;72.11;100236.40;253761;1104;115018;-68
2021/08/21 08:30:18;;;;;;;9.30;8.35;;;;;;;20.43;71.67;100231.63;253471;1104;114823;-68
2021/08/21 08:35:22;;;;;;;13.40;10.13;;;;;;;20.87;71.95;100238.67;253467;1104;114838;-69
2021/08/21 08:40:26;;;;;;;19.15;10.13;;;;;;;20.88;71.14;100243.80;253561;1104;115733;-66
2021/08/21 08:45:29;;;;;;;9.30;8.40;;;;;;;21.01;70.98;100226.03;253480;1104;116400;-67
2021/08/21 08:50:34;;;;;;;8.23;7.50;;;;;;;21.52;71.41;100228.83;253629;1104;115708;-68
2021/08/21 08:55:37;;;;;;;9.68;7.95;;;;;;;21.87;71.26;100232.88;254030;1104;115324;-67
2021/08/21 09:00:40;;;;;;;7.98;7.18;;;;;;;22.58;70.68;100236.23;253686;1104;114866;-66
2021/08/21 09:05:43;;;;;;;8.60;7.77;;;;;;;23.06;69.92;100245.56;253734;1104;116397;-67
2021/08/21 09:10:47;;;;;;;12.37;10.73;;;;;;;22.66;68.12;100259.95;253643;1104;114920;-68
2021/08/21 09:15:54;;;;;;;6.43;5.90;;;;;;;22.94;68.09;100255.34;257084;1104;117264;-69
2021/08/21 09:21:03;;;;;;;7.85;7.08;;;;;;;23.15;68.22;100254.62;253561;1104;114579;-68
2021/08/21 09:26:18;;;;;;;7.85;7.08;;;;;;;23.23;67.57;100249.56;253694;1104;115830;-68
2021/08/21 09:31:24;;;;;;;11.28;7.43;;;;;;;23.35;67.13;100256.06;257201;1104;115599;-68
2021/08/21 09:36:31;;;;;;;10.00;8.98;;;;;;;23.75;66.68;100258.98;255903;1104;115981;-68
2021/08/21 09:41:55;;;;;;;8.68;7.88;;;;;;;23.97;65.80;100256.23;255567;1104;115689;-68
2021/08/21 09:47:26;;;;;;;8.15;7.30;;;;;;;24.27;65.23;100253.86;257113;1104;116202;-67
2021/08/21 09:52:33;;;;;;;8.70;7.70;;;;;;;24.32;64.14;100249.09;257193;1104;115492;-68
2021/08/21 09:57:41;;;;;;;10.17;8.30;;;;;;;24.21;63.96;100249.63;257104;1104;115285;-68
2021/08/21 10:02:44;;;;;;;8.23;7.53;;;;;;;24.63;63.20;100250.97;256635;1104;116162;-67
2021/08/21 10:08:27;;;;;;;8.15;7.40;;;;;;;24.79;63.28;100244.75;253729;1104;115048;-68
2021/08/21 10:13:30;;;;;;;11.17;6.53;;;;;;;24.79;62.74;100244.75;254700;1104;114763;-67
2021/08/21 10:18:37;;;;;;;6.93;6.33;;;;;;;24.82;61.42;100232.41;257172;1104;115596;-67
2021/08/21 10:23:44;;;;;;;6.10;5.53;;;;;;;24.44;61.36;100249.31;257079;1104;115144;-67
2021/08/21 10:28:48;;;;;;;4.63;4.23;;;;;;;24.09;60.38;100250.23;254334;1104;115122;-67
2021/08/21 10:33:54;;;;;;;5.17;4.37;;;;;;;23.69;59.88;100244.69;255728;1104;115501;-68
2021/08/21 10:39:24;;;;;;;3.58;3.28;;;;;;;23.42;60.12;100253.73;257190;1104;115805;-69
2021/08/21 10:44:44;;;;;;;4.38;4.08;;;;;;;23.52;60.79;100249.98;254088;1104;115124;-67
2021/08/21 10:49:47;;;;;;;4.05;3.75;;;;;;;24.12;60.41;100249.61;253751;1104;115532;-68
2021/08/21 10:54:52;;;;;;;2.83;2.63;;;;;;;24.47;59.33;100240.48;256810;1104;115493;-68
2021/08/21 10:59:54;;;;;;;3.20;3.00;;;;;;;24.56;58.86;100243.25;253741;1099;116312;-68
2021/08/21 11:04:59;;;;;;;3.05;2.78;;;;;;;24.67;57.66;100230.14;253759;1104;116288;-68
2021/08/21 11:10:26;;;;;;;4.13;2.95;;;;;;;24.82;57.51;100232.41;257241;1104;118360;-68
2021/08/21 11:15:32;;;;;;;3.80;3.50;;;;;;;24.58;57.22;100238.28;253654;1104;116938;-70
2021/08/21 11:20:37;;;;;;;2.68;2.48;;;;;;;24.91;57.20;100238.70;254234;1104;115376;-70
2021/08/21 11:25:40;;;;;;;;;;;;;;;25.13;55.99;100232.33;257201;1104;116437;-70
2021/08/21 11:31:13;;;;;;;3.85;2.50;;;;;;;25.28;55.91;100241.98;254504;1104;103271;-70
2021/08/21 11:36:23;;;;;;;3.33;2.93;;;;;;;24.98;55.10;100236.34;253586;1104;119309;-69
2021/08/21 11:41:26;;;;;;;3.03;2.83;;;;;;;24.31;54.15;100236.58;253557;1104;115582;-70
2021/08/21 11:46:29;;;;;;;2.58;2.28;;;;;;;24.28;54.63;100239.93;253598;1104;115103;-70
2021/08/21 11:51:34;;;;;;;3.05;2.63;;;;;;;24.48;54.37;100238.56;253568;1104;114682;-68
2021/08/21 11:56:36;;;;;;;2.80;2.60;;;;;;;24.72;54.13;100243.63;253655;1104;115313;-68
2021/08/21 12:01:50;;;;;;;3.00;2.80;;;;;;;24.85;53.59;100226.33;253428;1104;115314;-70
2021/08/21 12:06:52;;;;;;;2.08;1.98;;;;;;;24.89;53.18;100230.03;256912;1104;116699;-70
2021/08/21 12:11:57;;;;;;;3.43;2.65;;;;;;;24.82;53.22;100226.96;257171;1104;115734;-68
2021/08/21 12:17:01;;;;;;;2.68;2.50;;;;;;;24.66;53.08;100240.24;256948;1104;139089;-69
2021/08/21 12:22:04;;;;;;;3.37;2.87;;;;;;;24.44;53.21;100235.69;257104;1104;115511;-70
2021/08/21 12:27:22;;;;;;;2.53;1.93;;;;;;;24.11;52.47;100229.73;257062;1104;115088;-68
2021/08/21 12:32:27;;;;;;;3.20;2.20;;;;;;;24.00;52.59;100242.00;256948;1104;115264;-69
2021/08/21 12:37:31;;;;;;;2.25;2.15;;;;;;;24.04;52.15;100234.02;255858;1104;115374;-70
2021/08/21 12:42:35;;;;;;;2.35;2.10;;;;;;;23.80;51.92;100235.16;253507;1104;114971;-69
2021/08/21 12:47:38;;;;;;;1.98;1.88;;;;;;;23.73;51.88;100229.34;253609;1099;115011;-70
2021/08/21 12:52:44;;;;;;;1.95;1.85;;;;;;;23.93;51.31;100219.84;254471;1104;115624;-69
2021/08/21 12:57:47;;;;;;;1.80;1.45;;;;;;;24.31;51.09;100224.88;253987;1098;115376;-69
2021/08/21 13:02:53;;;;;;;7.08;2.05;;;;;;;24.75;51.29;100232.91;256919;1104;115477;-71
2021/08/21 13:08:07;;;;;;;1.70;1.53;;;;;;;24.93;51.16;100228.27;256426;1104;115316;-71
2021/08/21 13:13:11;;;;;;;2.83;2.38;;;;;;;25.00;50.20;100231.38;255136;1104;115778;-70
2021/08/21 13:18:14;;;;;;;2.53;2.33;;;;;;;24.75;50.32;100237.55;253680;1104;115622;-69
2021/08/21 13:23:17;;;;;;;2.90;2.13;;;;;;;24.38;50.00;100236.94;255053;1104;115248;-69
2021/08/21 13:28:20;;;;;;;3.20;2.90;;;;;;;24.15;50.17;100230.69;253652;1104;115189;-69
2021/08/21 13:33:24;;;;;;;2.45;2.25;;;;;;;23.81;50.97;100231.33;253541;1104;115496;-70
2021/08/21 13:38:28;;;;;;;2.53;2.40;;;;;;;23.51;51.11;100232.05;255007;1104;115410;-70
2021/08/21 13:43:31;;;;;;;2.65;2.45;;;;;;;23.69;52.00;100238.44;253575;1104;115443;-68
2021/08/21 13:48:34;;;;;;;2.28;2.18;;;;;;;23.69;51.58;100227.55;255271;1104;115631;-69
2021/08/21 13:53:38;;;;;;;2.38;2.25;;;;;;;23.54;51.34;100220.58;254932;1104;115615;-69
2021/08/21 13:58:42;;;;;;;1.95;1.85;;;;;;;23.39;51.38;100237.22;257026;1104;116476;-69
2021/08/21 14:03:47;;;;;;;4.45;1.98;;;;;;;23.38;51.72;100232.89;257135;1104;115763;-70
2021/08/21 14:08:51;;;;;;;2.00;1.90;;;;;;;23.45;51.82;100231.36;255554;1104;115634;-69
2021/08/21 14:13:54;;;;;;;2.00;1.90;;;;;;;23.44;51.16;100226.22;257017;1104;115568;-70
2021/08/21 14:18:58;;;;;;;3.53;1.80;;;;;;;23.41;50.98;100243.16;257250;1104;115838;-69
2021/08/21 14:24:02;;;;;;;2.38;2.00;;;;;;;23.27;51.01;100236.94;256890;1104;115458;-69
2021/08/21 14:29:05;;;;;;;1.73;1.63;;;;;;;23.28;50.87;100233.11;257001;1104;115406;-69
2021/08/21 14:34:09;;;;;;;2.65;1.73;;;;;;;23.27;50.82;100220.62;256394;1104;115940;-69
2021/08/21 14:39:13;;;;;;;2.63;2.00;;;;;;;23.34;51.03;100227.25;255325;1104;115450;-69
2021/08/21 14:44:16;;;;;;;3.43;2.45;;;;;;;23.25;51.10;100229.08;253760;1104;115056;-68
2021/08/21 14:49:20;;;;;;;2.40;2.20;;;;;;;23.14;51.05;100217.66;253779;1104;114624;-68
2021/08/21 14:54:24;;;;;;;2.00;1.90;;;;;;;23.06;51.23;100221.09;253681;1104;114905;-68
2021/08/21 14:59:26;;;;;;;2.63;2.03;;;;;;;22.99;51.54;100215.25;255114;1104;117168;-68
2021/08/21 15:04:31;;;;;;;2.15;1.98;;;;;;;22.91;51.62;100216.00;254790;1104;115202;-69
2021/08/21 15:09:36;;;;;;;2.30;2.20;;;;;;;22.83;51.80;100222.14;253437;1099;115200;-69
2021/08/21 15:14:39;;;;;;;2.08;1.98;;;;;;;22.82;51.70;100224.06;253547;1104;116625;-68
2021/08/21 15:19:42;;;;;;;1.95;1.80;;;;;;;22.77;51.87;100217.89;253511;1104;116679;-70
2021/08/21 15:24:45;;;;;;;1.93;1.83;;;;;;;22.74;51.83;100218.49;256850;1104;116064;-70
2021/08/21 15:29:49;;;;;;;1.60;1.50;;;;;;;22.60;51.92;100213.09;257326;1104;118272;-69
2021/08/21 15:34:52;;;;;;;2.30;2.20;;;;;;;22.54;52.12;100208.86;257227;1104;116313;-69
2021/08/21 15:39:55;;;;;;;1.97;1.87;;;;;;;22.47;52.30;100206.53;254450;1104;116134;-71
2021/08/21 15:44:58;;;;;;;2.58;2.33;;;;;;;22.53;52.30;100207.25;253509;1104;116481;-70
2021/08/21 15:50:01;;;;;;;1.73;1.63;;;;;;;22.47;52.50;100192.15;253533;1104;116570;-69
2021/08/21 15:55:06;;;;;;;2.47;2.27;;;;;;;22.40;52.39;100191.73;253625;1104;173754;-70
2021/08/21 16:00:10;;;;;;;;;;;;;;;22.29;53.01;100195.78;254160;1104;115330;-69
2021/08/21 16:05:13;;;;;;;3.78;2.60;;;;;;;22.14;53.05;100192.23;254333;1104;103094;-68
2021/08/21 16:10:17;;;;;;;2.43;2.20;;;;;;;22.01;53.41;100192.23;253785;1104;116816;-67
2021/08/21 16:15:21;;;;;;;1.93;1.83;;;;;;;21.85;53.29;100186.23;253660;1104;116620;-69
2021/08/21 16:20:25;;;;;;;3.20;1.70;;;;;;;21.74;54.17;100184.78;257098;1104;117317;-69
2021/08/21 16:25:32;;;;;;;2.43;2.23;;;;;;;21.63;53.94;100186.08;257082;1104;116283;-68
2021/08/21 16:30:42;;;;;;;4.07;3.13;;;;;;;21.47;54.01;100190.93;257311;1104;117190;-68
2021/08/21 16:35:46;;;;;;;2.83;2.55;;;;;;;21.36;54.90;100186.79;254653;1104;116815;-67
2021/08/21 16:40:50;;;;;;;7.60;2.40;;;;;;;21.19;55.53;100189.98;255370;1104;117867;-68
2021/08/21 16:45:54;;;;;;;2.55;2.23;;;;;;;21.01;56.20;100193.51;253802;1104;116322;-69
2021/08/21 16:50:59;;;;;;;2.75;2.55;;;;;;;20.79;56.82;100184.02;254394;1104;117101;-71
2021/08/21 16:56:03;;;;;;;2.05;1.88;;;;;;;20.57;57.05;100197.32;255093;1104;116418;-71
2021/08/21 17:01:06;;;;;;;3.73;2.53;;;;;;;20.31;57.53;100190.56;254197;1104;117209;-67
2021/08/21 17:06:10;;;;;;;2.33;2.13;;;;;;;20.11;58.15;100197.02;255293;1104;116060;-67
2021/08/21 17:11:13;;;;;;;2.48;2.38;;;;;;;19.94;58.94;100202.03;253653;1104;115999;-67
2021/08/21 17:16:19;;;;;;;3.38;2.00;;;;;;;19.80;60.22;100196.50;254277;1104;116180;-66
2021/08/21 17:21:25;;;;;;;3.40;3.07;;;;;;;19.68;60.74;100196.86;255750;1104;116092;-67
2021/08/21 17:26:28;;;;;;;2.50;2.30;;;;;;;19.54;61.31;100192.41;253748;1100;116550;-68
2021/08/21 17:31:32;;;;;;;2.68;2.48;;;;;;;19.37;61.78;100195.45;253643;1104;116379;-68
2021/08/21 17:36:35;;;;;;;2.40;2.00;;;;;;;19.09;61.77;100197.80;253553;1104;115563;-67
2021/08/21 17:41:39;;;;;;;2.95;2.75;;;;;;;18.90;62.28;100194.14;253483;1104;116083;-69
2021/08/21 17:46:44;;;;;;;1.88;1.78;;;;;;;18.66;62.43;100207.47;253883;1104;115485;-69
2021/08/21 17:51:48;;;;;;;3.27;2.73;;;;;;;18.36;63.30;100205.66;253661;1104;115273;-68
2021/08/21 17:56:54;;;;;;;5.17;2.77;;;;;;;18.18;63.50;100198.16;253917;1104;115216;-67
2021/08/21 18:01:57;;;;;;;3.25;2.95;;;;;;;18.07;63.79;100218.13;257149;1104;116331;-70
2021/08/21 18:07:01;;;;;;;2.50;2.33;;;;;;;17.94;63.94;100219.52;254948;1104;116669;-69
2021/08/21 18:12:06;;;;;;;3.37;3.07;;;;;;;17.75;64.14;100227.33;253836;1104;117140;-69
2021/08/21 18:17:10;;;;;;;4.13;3.37;;;;;;;17.57;64.43;100225.15;255148;1104;115821;-68
2021/08/21 18:22:13;;;;;;;18.55;3.90;;;;;;;17.32;64.71;100242.11;255436;1104;115096;-67
2021/08/21 18:27:17;;;;;;;6.33;2.28;;;;;;;17.10;65.02;100241.52;255326;1104;115581;-67
2021/08/21 18:32:20;;;;;;;3.78;3.38;;;;;;;16.90;65.23;100239.55;257122;1104;114806;-66
2021/08/21 18:37:23;;;;;;;4.07;3.50;;;;;;;16.65;65.27;100255.61;256956;1104;115170;-68
2021/08/21 18:42:26;;;;;;;3.47;3.27;;;;;;;16.44;66.04;100250.09;257238;1105;115797;-65
2021/08/21 18:47:30;;;;;;;3.83;3.50;;;;;;;16.33;66.46;100251.09;257207;1104;117002;-67
2021/08/21 18:52:34;;;;;;;6.90;3.90;;;;;;;16.14;66.32;100249.91;255087;1104;114948;-67
2021/08/21 18:57:38;;;;;;;4.40;3.48;;;;;;;15.97;66.56;100252.73;253596;1104;116021;-67
2021/08/21 19:02:45;;;;;;;5.33;4.25;;;;;;;15.86;66.95;100258.30;253812;1104;115454;-66
2021/08/21 19:07:48;;;;;;;4.50;3.50;;;;;;;15.77;67.67;100261.45;253432;1099;115486;-66
2021/08/21 19:12:53;;;;;;;4.28;3.90;;;;;;;15.74;67.57;100251.20;253641;1104;115517;-68
2021/08/21 19:17:56;;;;;;;7.10;4.50;;;;;;;15.63;67.84;100249.48;253694;1104;116981;-68
2021/08/21 19:23:01;;;;;;;3.88;3.58;;;;;;;15.43;68.22;100255.46;254763;1104;115960;-67
2021/08/21 19:28:08;;;;;;;4.25;3.85;;;;;;;15.18;68.62;100244.47;253812;1104;115276;-68
2021/08/21 19:33:13;;;;;;;8.48;4.48;;;;;;;15.04;68.97;100249.41;255231;1104;114786;-65
2021/08/21 19:38:19;;;;;;;5.20;4.70;;;;;;;15.00;69.43;100242.09;254361;1104;114737;-67
2021/08/21 19:43:23;;;;;;;6.48;5.83;;;;;;;14.93;69.07;100242.31;254362;1104;115743;-67
2021/08/21 19:48:26;;;;;;;8.60;6.65;;;;;;;14.79;69.35;100243.73;253703;1104;115062;-66
2021/08/21 19:53:30;;;;;;;9.18;7.03;;;;;;;14.69;70.18;100249.78;253732;1104;115445;-66
2021/08/21 19:58:32;;;;;;;10.05;7.53;;;;;;;14.76;70.94;100244.23;253660;1104;115087;-66
2021/08/21 20:03:37;;;;;;;13.85;7.50;;;;;;;14.79;70.69;100257.16;254166;1100;115074;-66
2021/08/21 20:08:43;;;;;;;10.43;8.67;;;;;;;14.86;70.72;100249.73;254124;1104;116767;-66
2021/08/21 20:13:47;;;;;;;12.68;9.45;;;;;;;14.77;70.59;100251.23;255039;1104;117128;-65
2021/08/21 20:18:53;;;;;;;8.57;7.30;;;;;;;14.75;70.39;100259.53;253760;1104;115603;-66
2021/08/21 20:23:59;;;;;;;6.48;5.70;;;;;;;14.55;70.07;100247.73;254376;1104;115482;-66
2021/08/21 20:29:02;;;;;;;5.95;5.43;;;;;;;14.30;70.18;100246.30;255433;1099;116183;-67
2021/08/21 20:34:06;;;;;;;7.90;7.10;;;;;;;14.18;70.95;100242.08;253749;1104;115828;-65
2021/08/21 20:39:13;;;;;;;8.38;6.93;;;;;;;14.06;71.21;100256.38;253905;1104;115571;-66
2021/08/21 20:44:17;;;;;;;28.18;20.03;;;;;;;14.07;71.11;100246.47;257385;1104;115935;-67
2021/08/21 20:49:21;;;;;;;16.50;12.43;;;;;;;14.04;71.92;100249.66;257218;1104;115581;-66
2021/08/21 20:54:24;;;;;;;16.17;11.00;;;;;;;14.03;71.66;100246.17;257099;1104;115826;-66
2021/08/21 20:59:27;;;;;;;11.65;8.23;;;;;;;13.96;71.38;100244.70;257162;1104;117672;-66
2021/08/21 21:04:31;;;;;;;10.85;9.78;;;;;;;13.89;71.76;100236.02;257164;1104;116422;-65
2021/08/21 21:09:36;;;;;;;9.50;8.33;;;;;;;13.85;71.65;100241.05;257040;1104;117109;-64
2021/08/21 21:14:40;;;;;;;10.35;9.23;;;;;;;13.87;71.34;100238.94;255194;1104;116408;-66
2021/08/21 21:19:44;;;;;;;11.75;7.48;;;;;;;13.82;71.71;100228.94;253718;1104;116706;-66
2021/08/21 21:24:52;;;;;;;6.15;5.55;;;;;;;13.76;72.20;100235.27;253608;1104;117280;-67
2021/08/21 21:30:00;;;;;;;13.73;7.13;;;;;;;13.64;72.18;100236.41;256930;1104;116558;-66
2021/08/21 21:35:07;;;;;;;8.60;6.78;;;;;;;13.66;72.61;100234.31;255617;1103;116199;-66
2021/08/21 21:40:10;;;;;;;7.53;6.43;;;;;;;13.70;72.88;100230.91;253911;1104;116105;-67
2021/08/21 21:45:14;;;;;;;12.93;7.30;;;;;;;13.63;72.37;100240.95;253834;1104;115424;-67
2021/08/21 21:50:18;;;;;;;12.50;7.55;;;;;;;13.50;72.96;100246.61;253859;1104;115714;-66
2021/08/21 21:55:21;;;;;;;13.40;7.35;;;;;;;13.49;72.85;100236.95;254043;1104;115824;-66
2021/08/21 22:00:39;;;;;;;9.28;6.55;;;;;;;13.54;73.22;100236.23;254667;1104;115982;-68
2021/08/21 22:05:46;;;;;;;16.13;7.20;;;;;;;13.44;72.53;100236.89;253985;1104;115231;-66
2021/08/21 22:10:52;;;;;;;8.43;6.65;;;;;;;13.30;72.50;100236.36;255657;1099;115570;-65
2021/08/21 22:15:55;;;;;;;8.83;7.33;;;;;;;13.26;72.83;100227.18;254001;1104;115619;-67
2021/08/21 22:20:59;;;;;;;9.33;6.35;;;;;;;13.18;73.20;100237.45;253886;1104;115658;-67
2021/08/21 22:26:02;;;;;;;7.07;6.40;;;;;;;13.05;72.95;100234.00;253834;1100;115666;-67
2021/08/21 22:31:07;;;;;;;9.10;6.80;;;;;;;12.86;72.83;100232.53;253552;1104;115774;-65
2021/08/21 22:36:11;;;;;;;6.93;6.30;;;;;;;12.85;73.55;100230.91;253688;1104;115881;-65
2021/08/21 22:41:16;;;;;;;8.43;7.35;;;;;;;12.93;74.06;100227.05;253693;1104;115137;-66
2021/08/21 22:46:20;;;;;;;8.95;7.75;;;;;;;12.95;73.80;100222.27;253744;1104;115431;-66
2021/08/21 22:51:25;;;;;;;11.15;8.33;;;;;;;13.02;74.11;100226.44;253628;1104;115343;-67
2021/08/21 22:56:31;;;;;;;7.45;6.73;;;;;;;13.05;73.76;100211.78;255460;1104;116162;-67